Time;durP1;ratioP1;P1;durP2;ratioP2;P2;SDS_P1;SDS_P2;PMS_P1;PMS_P2;Temp;Humidity;BMP_temperature;BMP_pressure;BME280_temperature;BME280_humidity;BME280_pressure;Samples;Min_cycle;Max_cycle;Signal;HPM_P1;HPM_P2
2021/06/16 00:00:19;;;;;;;2.92;0.95;;;25.10;53.10;;;;;;5016542;28;20044;-61
2021/06/16 00:02:45;;;;;;;2.55;0.80;;;25.00;53.00;;;;;;5016251;28;20022;-62
2021/06/16 00:05:20;;;;;;;2.80;0.80;;;25.00;53.10;;;;;;5015775;28;20050;-62
2021/06/16 00:07:46;;;;;;;2.53;0.70;;;25.00;53.10;;;;;;5016168;28;20022;-61
2021/06/16 00:10:13;;;;;;;1.48;0.65;;;25.30;53.40;;;;;;5016265;28;20029;-62
2021/06/16 00:12:39;;;;;;;1.35;0.68;;;24.90;53.00;;;;;;5016000;28;20025;-61
2021/06/16 00:15:12;;;;;;;0.88;0.50;;;24.90;53.10;;;;;;5014933;28;20501;-61
2021/06/16 00:17:38;;;;;;;2.58;0.80;;;24.90;53.20;;;;;;5015677;28;20018;-62
2021/06/16 00:20:05;;;;;;;2.50;1.13;;;25.30;53.40;;;;;;5014421;28;20022;-61
2021/06/16 00:22:30;;;;;;;1.65;0.80;;;24.90;53.20;;;;;;5015917;28;20034;-62
2021/06/16 00:24:56;;;;;;;3.03;0.77;;;24.90;52.60;;;;;;5015910;28;20029;-61
2021/06/16 00:27:21;;;;;;;2.88;0.60;;;25.30;53.40;;;;;;5016107;28;20557;-63
2021/06/16 00:29:47;;;;;;;1.73;0.70;;;24.90;53.30;;;;;;5015653;28;20026;-61
2021/06/16 00:32:13;;;;;;;1.23;0.60;;;24.90;53.20;;;;;;5015833;28;20029;-61
2021/06/16 00:34:39;;;;;;;2.10;0.68;;;25.00;53.30;;;;;;5015444;28;20505;-62
2021/06/16 00:37:05;;;;;;;2.67;0.73;;;24.90;53.20;;;;;;5015890;28;20026;-62
2021/06/16 00:39:31;;;;;;;2.60;0.65;;;24.90;53.20;;;;;;5015423;28;20030;-62
2021/06/16 00:41:56;;;;;;;1.17;0.70;;;24.90;53.30;;;;;;5014306;28;20030;-62
2021/06/16 00:44:22;;;;;;;2.15;0.90;;;24.80;53.30;;;;;;5015618;28;20033;-62
2021/06/16 00:46:48;;;;;;;1.17;0.70;;;25.50;53.70;;;;;;5014219;28;20053;-62
2021/06/16 00:49:14;;;;;;;2.15;0.80;;;24.80;54.00;;;;;;5015576;28;20061;-62
2021/06/16 00:51:39;;;;;;;2.08;0.77;;;24.90;53.40;;;;;;5015527;28;20034;-62
2021/06/16 00:54:09;;;;;;;2.28;0.60;;;24.80;53.30;;;;;;5015392;28;20014;-62
2021/06/16 00:56:40;;;;;;;1.83;0.70;;;24.80;53.30;;;;;;5015641;28;20080;-62
2021/06/16 00:59:07;;;;;;;0.80;0.50;;;24.80;53.30;;;;;;5015678;28;20025;-62
2021/06/16 01:01:38;;;;;;;3.97;0.57;;;24.80;53.40;;;;;;5015624;28;20058;-62
2021/06/16 01:04:14;;;;;;;1.27;0.60;;;24.90;53.30;;;;;;5015298;28;20056;-61
2021/06/16 01:06:43;;;;;;;3.38;0.80;;;24.80;53.20;;;;;;5015665;28;20026;-61
2021/06/16 01:09:18;;;;;;;1.40;0.70;;;24.70;53.20;;;;;;5015522;28;20022;-62
2021/06/16 01:11:55;;;;;;;2.50;0.77;;;24.80;53.20;;;;;;5015275;28;20034;-62
2021/06/16 01:14:28;;;;;;;2.05;0.57;;;24.70;53.20;;;;;;5015436;28;20026;-61
2021/06/16 01:17:00;;;;;;;3.28;0.65;;;24.80;53.30;;;;;;5013861;28;20105;-62
2021/06/16 01:19:56;;;;;;;1.52;0.70;;;24.70;53.30;;;;;;5014902;28;20025;-61
2021/06/16 01:22:49;;;;;;;2.35;0.80;;;24.70;53.20;;;;;;5014917;28;20092;-62
2021/06/16 01:25:33;;;;;;;2.15;0.70;;;24.70;53.20;;;;;;5015200;28;20025;-62
2021/06/16 01:28:00;;;;;;;2.33;0.88;;;24.70;53.20;;;;;;5015388;28;20124;-61
2021/06/16 01:30:29;;;;;;;2.33;0.63;;;24.70;53.30;;;;;;5014900;28;20053;-61
2021/06/16 01:32:58;;;;;;;2.75;0.70;;;24.80;53.40;;;;;;5014830;28;20057;-61
2021/06/16 01:35:28;;;;;;;1.08;0.65;;;24.70;54.00;;;;;;5015091;28;20022;-61
2021/06/16 01:37:53;;;;;;;3.40;0.90;;;25.30;53.70;;;;;;5015022;28;20026;-61
2021/06/16 01:40:21;;;;;;;2.92;1.05;;;24.80;53.40;;;;;;5014679;28;20488;-61
2021/06/16 01:42:48;;;;;;;1.05;0.63;;;24.70;53.40;;;;;;5014601;28;20033;-61
2021/06/16 01:45:17;;;;;;;1.20;0.85;;;24.80;53.40;;;;;;5014903;28;20029;-62
2021/06/16 01:47:44;;;;;;;1.58;0.77;;;24.70;53.40;;;;;;5014747;28;20112;-61
2021/06/16 01:50:12;;;;;;;1.50;0.63;;;25.20;53.70;;;;;;5014579;28;20029;-61
2021/06/16 01:52:39;;;;;;;1.77;0.60;;;24.60;53.30;;;;;;5014698;28;20053;-61
2021/06/16 01:55:06;;;;;;;2.05;0.68;;;24.70;53.40;;;;;;5014552;28;20021;-61
2021/06/16 01:57:34;;;;;;;1.40;0.60;;;24.60;52.80;;;;;;5014143;28;20277;-61
2021/06/16 02:00:00;;;;;;;1.95;0.70;;;25.10;53.60;;;;;;5014363;28;20091;-62
2021/06/16 02:02:26;;;;;;;2.47;0.50;;;24.80;53.50;;;;;;5014104;28;20104;-62
2021/06/16 02:04:52;;;;;;;1.65;0.82;;;24.70;53.40;;;;;;5013191;28;20089;-61
2021/06/16 02:07:22;;;;;;;3.72;0.65;;;25.20;53.80;;;;;;5013152;28;20065;-61
2021/06/16 02:09:50;;;;;;;1.60;0.57;;;24.60;53.40;;;;;;5014149;28;20418;-61
2021/06/16 02:12:17;;;;;;;2.08;0.77;;;24.60;53.50;;;;;;5014185;28;20389;-61
2021/06/16 02:14:49;;;;;;;3.33;0.88;;;24.60;53.40;;;;;;5014483;28;20413;-61
2021/06/16 02:17:18;;;;;;;2.03;0.75;;;24.60;53.40;;;;;;5014313;28;20096;-61
2021/06/16 02:19:46;;;;;;;2.90;0.68;;;25.10;53.70;;;;;;5014339;28;20018;-61
2021/06/16 02:22:13;;;;;;;3.70;0.98;;;25.00;53.60;;;;;;5014268;28;20049;-62
2021/06/16 02:24:39;;;;;;;2.55;0.85;;;24.60;53.40;;;;;;5014193;28;20026;-61
2021/06/16 02:27:06;;;;;;;2.08;0.88;;;25.00;53.60;;;;;;5013981;28;20112;-61
2021/06/16 02:29:32;;;;;;;1.35;0.82;;;24.50;53.40;;;;;;5013516;28;20018;-61
2021/06/16 02:31:58;;;;;;;1.88;0.50;;;25.10;53.70;;;;;;5013485;28;20029;-61
2021/06/16 02:34:25;;;;;;;1.67;0.73;;;25.10;53.70;;;;;;5012316;28;20022;-61
2021/06/16 02:36:54;;;;;;;2.20;0.93;;;24.50;53.40;;;;;;5013781;28;20080;-61
2021/06/16 02:39:31;;;;;;;2.13;0.65;;;25.10;53.70;;;;;;5013524;28;20033;-61
2021/06/16 02:41:57;;;;;;;2.60;0.90;;;24.50;53.40;;;;;;5013522;28;20014;-61
2021/06/16 02:44:25;;;;;;;1.92;0.70;;;24.60;53.50;;;;;;5013279;28;20057;-61
2021/06/16 02:46:53;;;;;;;1.15;0.70;;;25.10;53.70;;;;;;5013281;28;20598;-61
2021/06/16 02:49:39;;;;;;;1.13;0.80;;;24.90;53.60;;;;;;5013331;28;20022;-61
2021/06/16 02:52:08;;;;;;;2.47;0.85;;;24.90;53.70;;;;;;5012011;28;20040;-61
2021/06/16 02:54:35;;;;;;;2.92;0.50;;;24.50;53.40;;;;;;5013441;28;20014;-61
2021/06/16 02:57:03;;;;;;;2.80;0.85;;;24.50;53.50;;;;;;5013169;28;20029;-61
2021/06/16 02:59:31;;;;;;;1.30;0.60;;;24.50;53.60;;;;;;5013500;28;20022;-61
2021/06/16 03:01:56;;;;;;;1.85;0.75;;;25.00;53.80;;;;;;5013223;28;20030;-61
2021/06/16 03:04:23;;;;;;;2.60;0.80;;;24.50;53.60;;;;;;5013097;28;20056;-61
2021/06/16 03:06:51;;;;;;;3.28;0.85;;;24.50;53.50;;;;;;5013212;28;20022;-61
2021/06/16 03:09:21;;;;;;;1.85;0.88;;;24.40;53.50;;;;;;5013072;28;20029;-61
2021/06/16 03:11:47;;;;;;;1.73;0.80;;;24.50;53.50;;;;;;5013159;28;20034;-62
2021/06/16 03:14:13;;;;;;;2.70;1.05;;;24.50;53.60;;;;;;5011671;28;20026;-61
2021/06/16 03:16:41;;;;;;;2.03;0.70;;;24.80;53.70;;;;;;5012925;28;20025;-62
2021/06/16 03:19:07;;;;;;;2.50;0.68;;;24.50;53.60;;;;;;5013231;28;20034;-62
2021/06/16 03:21:35;;;;;;;2.28;0.60;;;24.50;53.60;;;;;;5013150;28;20027;-62
2021/06/16 03:24:02;;;;;;;1.70;0.70;;;24.40;53.60;;;;;;5012963;28;20030;-61
2021/06/16 03:26:28;;;;;;;3.53;0.70;;;24.40;53.00;;;;;;5013111;28;20026;-61
2021/06/16 03:28:55;;;;;;;2.80;0.70;;;24.50;53.60;;;;;;5013225;28;20018;-61
2021/06/16 03:31:21;;;;;;;1.40;0.57;;;25.00;53.90;;;;;;5012773;28;20492;-61
2021/06/16 03:33:48;;;;;;;2.22;0.80;;;24.40;53.60;;;;;;5013028;28;20065;-61
2021/06/16 03:36:15;;;;;;;1.45;0.90;;;24.80;53.80;;;;;;5013187;28;20057;-61
2021/06/16 03:38:43;;;;;;;1.65;0.60;;;24.50;53.70;;;;;;5013033;28;20022;-61
2021/06/16 03:41:10;;;;;;;2.50;0.70;;;24.40;53.60;;;;;;5012666;28;20144;-61
2021/06/16 03:43:36;;;;;;;1.75;0.75;;;24.40;53.60;;;;;;5012929;28;20072;-61
2021/06/16 03:46:09;;;;;;;2.17;0.70;;;25.00;53.90;;;;;;5012732;28;20101;-61
2021/06/16 03:48:36;;;;;;;1.25;0.77;;;24.60;53.70;;;;;;5011638;28;20030;-61
2021/06/16 03:51:04;;;;;;;1.58;0.85;;;24.40;53.70;;;;;;5012900;28;20119;-61
2021/06/16 03:53:30;;;;;;;0.80;0.50;;;24.40;53.60;;;;;;5012762;28;20420;-62
2021/06/16 03:55:57;;;;;;;1.90;0.65;;;24.60;53.70;;;;;;5012758;28;20062;-61
2021/06/16 03:58:23;;;;;;;0.95;0.80;;;24.70;53.80;;;;;;5012833;28;20101;-62
2021/06/16 04:00:49;;;;;;;4.47;0.90;;;24.40;53.70;;;;;;5012721;28;20018;-61
2021/06/16 04:03:15;;;;;;;2.28;0.70;;;24.40;53.70;;;;;;5012750;28;20028;-61
2021/06/16 04:05:41;;;;;;;2.58;0.90;;;24.40;53.70;;;;;;5012731;28;20034;-61
2021/06/16 04:08:09;;;;;;;1.17;0.63;;;24.40;54.30;;;;;;5012389;28;20026;-62
2021/06/16 04:10:36;;;;;;;1.73;0.70;;;24.30;53.60;;;;;;5012484;28;20452;-61
2021/06/16 04:13:03;;;;;;;2.15;0.85;;;24.40;53.70;;;;;;5012414;28;20469;-62
2021/06/16 04:15:29;;;;;;;1.83;0.70;;;24.50;53.70;;;;;;5012532;28;20026;-61
2021/06/16 04:17:58;;;;;;;2.15;0.80;;;24.30;53.70;;;;;;5012710;28;20014;-62
2021/06/16 04:20:24;;;;;;;2.60;1.15;;;24.30;53.70;;;;;;5012390;28;20385;-61
2021/06/16 04:22:50;;;;;;;1.13;0.70;;;24.30;53.70;;;;;;5012619;28;20025;-62
2021/06/16 04:25:16;;;;;;;3.33;0.90;;;24.30;53.70;;;;;;5012421;28;20021;-61
2021/06/16 04:27:41;;;;;;;1.85;0.85;;;24.50;53.80;;;;;;5012355;28;20025;-61
2021/06/16 04:30:10;;;;;;;2.50;0.60;;;24.30;53.70;;;;;;5015436;28;20104;-61
2021/06/16 04:32:37;;;;;;;2.35;0.68;;;24.30;53.70;;;;;;5016071;28;20025;-61
2021/06/16 04:35:07;;;;;;;2.10;0.57;;;24.60;53.80;;;;;;5015778;28;20038;-62
2021/06/16 04:37:34;;;;;;;2.10;0.65;;;24.30;53.70;;;;;;5015904;28;20030;-62
2021/06/16 04:39:59;;;;;;;3.53;0.70;;;24.30;53.70;;;;;;5015968;28;20026;-61
2021/06/16 04:42:26;;;;;;;2.00;0.73;;;24.70;54.00;;;;;;5015604;28;20153;-62
2021/06/16 04:44:51;;;;;;;3.17;0.98;;;24.30;53.70;;;;;;5015879;28;20025;-61
2021/06/16 04:47:17;;;;;;;2.15;0.70;;;24.40;53.80;;;;;;5015511;28;20022;-61
2021/06/16 04:49:44;;;;;;;2.22;0.60;;;24.30;53.70;;;;;;5015707;28;20025;-61
2021/06/16 04:52:10;;;;;;;3.60;0.90;;;24.50;53.80;;;;;;5015549;28;20366;-61
2021/06/16 04:54:35;;;;;;;2.83;0.77;;;24.80;54.00;;;;;;5015411;28;20097;-61
2021/06/16 04:57:05;;;;;;;1.27;0.63;;;24.30;53.70;;;;;;5015539;28;20054;-61
2021/06/16 04:59:31;;;;;;;1.48;0.80;;;24.20;53.60;;;;;;5015619;28;20029;-61
2021/06/16 05:01:57;;;;;;;1.85;0.80;;;24.30;53.70;;;;;;5015262;28;20388;-61
2021/06/16 05:04:23;;;;;;;2.60;0.77;;;24.50;53.90;;;;;;5014806;28;20050;-61
2021/06/16 05:06:48;;;;;;;1.50;0.80;;;24.40;53.90;;;;;;5015166;28;20128;-61
2021/06/16 05:09:14;;;;;;;2.03;0.80;;;24.30;53.70;;;;;;5015402;28;20097;-61
2021/06/16 05:11:39;;;;;;;2.63;0.77;;;24.20;53.90;;;;;;5015040;28;20034;-61
2021/06/16 05:14:05;;;;;;;1.55;0.60;;;24.20;53.90;;;;;;5014188;28;20022;-61
2021/06/16 05:16:31;;;;;;;6.72;0.73;;;24.40;54.00;;;;;;5015296;28;20022;-61
2021/06/16 05:18:58;;;;;;;1.23;0.55;;;24.30;53.90;;;;;;5014934;28;20029;-61
2021/06/16 05:21:24;;;;;;;3.95;0.90;;;24.60;54.10;;;;;;5014965;28;20026;-61
2021/06/16 05:23:50;;;;;;;1.35;0.73;;;24.50;54.20;;;;;;5014898;28;20018;-61
2021/06/16 05:26:16;;;;;;;2.45;0.98;;;24.60;54.30;;;;;;5014869;28;20022;-61
2021/06/16 05:28:42;;;;;;;4.00;0.60;;;24.30;54.10;;;;;;5014771;28;20376;-61
2021/06/16 05:31:09;;;;;;;2.00;0.95;;;24.10;53.90;;;;;;5013493;28;20040;-61
2021/06/16 05:33:35;;;;;;;2.25;0.73;;;24.30;53.90;;;;;;5014497;28;20022;-61
2021/06/16 05:36:01;;;;;;;2.85;0.75;;;24.50;54.50;;;;;;5014600;28;20028;-61
2021/06/16 05:38:26;;;;;;;2.03;0.80;;;24.40;54.40;;;;;;5014776;28;20014;-61
2021/06/16 05:40:52;;;;;;;2.60;0.60;;;24.30;54.20;;;;;;5013647;28;20036;-61
2021/06/16 05:43:18;;;;;;;1.65;0.90;;;24.30;54.00;;;;;;5014399;28;20021;-61
2021/06/16 05:45:44;;;;;;;2.75;0.85;;;24.30;54.00;;;;;;5014377;28;20030;-61
2021/06/16 05:48:09;;;;;;;4.38;0.85;;;24.70;54.40;;;;;;5014381;28;20105;-61
2021/06/16 05:50:35;;;;;;;2.45;0.80;;;24.00;54.00;;;;;;5014206;28;20057;-60
2021/06/16 05:53:00;;;;;;;4.80;0.82;;;24.20;54.30;;;;;;5014169;28;20038;-59
2021/06/16 05:55:26;;;;;;;4.07;0.93;;;24.20;54.30;;;;;;5014489;28;20018;-61
2021/06/16 05:57:51;;;;;;;3.55;1.27;;;24.80;54.60;;;;;;5014057;28;20184;-61
2021/06/16 06:00:17;;;;;;;1.90;0.77;;;24.60;54.40;;;;;;5012905;28;20385;-61
2021/06/16 06:02:43;;;;;;;3.22;1.05;;;24.20;54.70;;;;;;5014251;28;20076;-61
2021/06/16 06:05:09;;;;;;;2.45;0.70;;;24.40;54.90;;;;;;5013845;28;20132;-61
2021/06/16 06:07:35;;;;;;;1.70;0.80;;;24.20;54.60;;;;;;5014155;28;20028;-61
2021/06/16 06:10:00;;;;;;;1.98;0.70;;;24.30;54.60;;;;;;5013912;28;20022;-61
2021/06/16 06:12:26;;;;;;;3.13;1.15;;;24.70;54.80;;;;;;5013882;28;20063;-61
2021/06/16 06:14:51;;;;;;;3.30;0.90;;;24.90;55.00;;;;;;5014120;28;20194;-61
2021/06/16 06:17:17;;;;;;;2.92;1.02;;;24.20;54.90;;;;;;5013742;28;20362;-61
2021/06/16 06:19:43;;;;;;;2.33;0.50;;;24.70;55.00;;;;;;5013760;28;20026;-61
2021/06/16 06:22:08;;;;;;;2.85;0.80;;;24.80;54.80;;;;;;5013945;28;20040;-61
2021/06/16 06:24:34;;;;;;;3.60;0.98;;;24.60;54.90;;;;;;5013859;28;20026;-61
2021/06/16 06:27:00;;;;;;;3.00;0.80;;;24.80;55.00;;;;;;5013967;28;20469;-61
2021/06/16 06:29:26;;;;;;;5.68;0.60;;;24.20;54.60;;;;;;5013864;28;20080;-61
2021/06/16 06:31:53;;;;;;;4.82;1.10;;;24.20;54.50;;;;;;5012204;28;20034;-61
2021/06/16 06:34:18;;;;;;;2.95;0.95;;;24.20;54.60;;;;;;5013458;28;20022;-61
2021/06/16 06:36:44;;;;;;;3.63;0.70;;;24.20;54.50;;;;;;5013685;28;20029;-61
2021/06/16 06:39:10;;;;;;;5.88;0.73;;;24.20;54.50;;;;;;5013640;28;20487;-61
2021/06/16 06:41:36;;;;;;;1.15;0.70;;;24.50;54.60;;;;;;5013622;28;20385;-61
2021/06/16 06:44:02;;;;;;;4.07;0.80;;;24.50;54.60;;;;;;5013289;28;20033;-61
2021/06/16 06:46:27;;;;;;;3.53;0.63;;;24.20;54.40;;;;;;5013349;28;20026;-61
2021/06/16 06:48:53;;;;;;;1.70;0.75;;;24.20;54.30;;;;;;5013494;28;20022;-60
2021/06/16 06:51:18;;;;;;;2.33;0.90;;;24.40;54.30;;;;;;5011923;28;20033;-61
2021/06/16 06:53:44;;;;;;;2.58;0.70;;;24.20;54.00;;;;;;5013510;28;20026;-60
2021/06/16 06:56:10;;;;;;;1.90;0.77;;;24.20;53.90;;;;;;5013008;28;20029;-60
2021/06/16 06:58:35;;;;;;;3.33;0.93;;;24.80;54.20;;;;;;5013140;28;20026;-60
2021/06/16 07:01:01;;;;;;;2.75;0.65;;;24.20;54.00;;;;;;5013136;28;20045;-60
2021/06/16 07:03:27;;;;;;;2.42;0.80;;;24.20;54.30;;;;;;5012966;28;20027;-60
2021/06/16 07:05:53;;;;;;;1.80;0.80;;;24.20;54.70;;;;;;5013356;28;20090;-60
2021/06/16 07:08:19;;;;;;;12.07;1.40;;;24.50;54.60;;;;;;5012944;28;20052;-60
2021/06/16 07:10:44;;;;;;;5.13;1.27;;;24.20;54.40;;;;;;5013213;28;20058;-60
2021/06/16 07:13:10;;;;;;;7.40;1.10;;;24.40;54.40;;;;;;5012906;28;20545;-60
2021/06/16 07:15:36;;;;;;;3.00;1.02;;;24.70;54.50;;;;;;5011697;28;20030;-60
2021/06/16 07:18:01;;;;;;;2.47;0.93;;;24.20;53.90;;;;;;5013187;28;20018;-60
2021/06/16 07:20:27;;;;;;;5.70;1.25;;;24.20;53.70;;;;;;5013262;28;20022;-60
2021/06/16 07:22:53;;;;;;;1.67;0.73;;;24.20;53.70;;;;;;5011551;28;20022;-60
2021/06/16 07:25:19;;;;;;;5.28;1.40;;;24.70;54.00;;;;;;5013053;28;20049;-60
2021/06/16 07:27:45;;;;;;;2.97;1.05;;;24.30;53.50;;;;;;5012932;28;20057;-60
2021/06/16 07:30:12;;;;;;;3.03;1.50;;;24.40;53.40;;;;;;5013092;28;20015;-60
2021/06/16 07:32:39;;;;;;;14.65;2.08;;;24.30;52.40;;;;;;5012786;28;20049;-60
2021/06/16 07:35:06;;;;;;;5.65;1.13;;;24.20;51.80;;;;;;5012744;28;20014;-60
2021/06/16 07:37:31;;;;;;;9.13;2.20;;;24.20;52.20;;;;;;5012509;28;20488;-60
2021/06/16 07:39:57;;;;;;;6.60;1.40;;;24.30;51.70;;;;;;5012753;28;20018;-60
2021/06/16 07:42:23;;;;;;;3.53;1.08;;;24.20;51.90;;;;;;5012701;28;20350;-59
2021/06/16 07:44:49;;;;;;;8.27;1.80;;;24.30;51.70;;;;;;5012737;28;20034;-60
2021/06/16 07:47:15;;;;;;;4.07;1.67;;;24.20;51.50;;;;;;5013063;28;20022;-59
2021/06/16 07:49:41;;;;;;;4.78;1.67;;;24.20;51.40;;;;;;5012973;28;20022;-59
2021/06/16 07:52:07;;;;;;;4.82;1.95;;;24.60;52.30;;;;;;5012557;28;20030;-59
2021/06/16 07:54:33;;;;;;;8.80;1.83;;;24.30;51.30;;;;;;5012561;28;20080;-59
2021/06/16 07:56:59;;;;;;;3.63;1.58;;;24.30;51.10;;;;;;5012761;28;20018;-60
2021/06/16 07:59:24;;;;;;;7.28;2.40;;;24.80;51.40;;;;;;5012548;28;20026;-60
2021/06/16 08:01:50;;;;;;;3.88;1.48;;;24.40;51.20;;;;;;5012830;28;20386;-60
2021/06/16 08:04:19;;;;;;;6.32;1.63;;;24.90;51.50;;;;;;5014681;28;20092;-59
2021/06/16 08:06:44;;;;;;;4.75;1.52;;;24.30;51.40;;;;;;5016603;28;20080;-60
2021/06/16 08:09:10;;;;;;;4.65;1.58;;;24.30;51.50;;;;;;5016644;28;20611;-60
2021/06/16 08:11:35;;;;;;;8.63;2.47;;;24.30;51.80;;;;;;5016137;28;20443;-60
2021/06/16 08:14:01;;;;;;;6.13;1.88;;;24.90;51.70;;;;;;5016460;28;20030;-60
2021/06/16 08:16:26;;;;;;;8.60;1.85;;;24.80;52.00;;;;;;5016091;28;20030;-60
2021/06/16 08:18:52;;;;;;;7.88;2.17;;;24.40;51.90;;;;;;5016181;28;20164;-60
2021/06/16 08:21:19;;;;;;;5.63;1.42;;;24.70;52.00;;;;;;5016379;28;20080;-60
2021/06/16 08:23:46;;;;;;;7.07;1.75;;;24.40;51.80;;;;;;5016283;28;20033;-60
2021/06/16 08:26:13;;;;;;;6.93;1.35;;;24.40;51.80;;;;;;5015971;28;20022;-60
2021/06/16 08:28:38;;;;;;;5.68;1.67;;;24.60;51.90;;;;;;5015886;28;20228;-60
2021/06/16 08:31:04;;;;;;;5.00;2.17;;;24.90;52.00;;;;;;5016150;28;20113;-60
2021/06/16 08:33:30;;;;;;;7.03;1.60;;;24.40;51.60;;;;;;5016117;28;20026;-59
2021/06/16 08:35:56;;;;;;;9.20;1.88;;;24.40;51.50;;;;;;5016166;28;20437;-59
2021/06/16 08:38:22;;;;;;;5.18;1.45;;;24.50;51.80;;;;;;5015767;28;20049;-60
2021/06/16 08:40:48;;;;;;;4.05;1.40;;;24.40;51.80;;;;;;5015965;28;20032;-60
2021/06/16 08:43:14;;;;;;;6.20;1.50;;;24.40;51.80;;;;;;5015920;28;20087;-59
2021/06/16 08:45:40;;;;;;;7.68;1.90;;;24.40;51.90;;;;;;5015863;28;20022;-60
2021/06/16 08:48:07;;;;;;;9.50;1.42;;;24.40;51.90;;;;;;5015626;28;20037;-60
2021/06/16 08:50:33;;;;;;;4.45;1.60;;;24.50;52.10;;;;;;5015537;28;20088;-60
2021/06/16 08:52:58;;;;;;;8.30;1.67;;;25.00;52.50;;;;;;5015787;28;20030;-59
2021/06/16 08:55:24;;;;;;;7.72;1.88;;;24.50;52.30;;;;;;5015656;28;20496;-60
2021/06/16 08:57:50;;;;;;;9.23;1.90;;;24.50;52.30;;;;;;5015742;28;20420;-60
2021/06/16 09:00:18;;;;;;;5.45;1.60;;;24.60;52.20;;;;;;5015687;28;20040;-60
2021/06/16 09:02:45;;;;;;;7.53;2.08;;;24.60;52.20;;;;;;5015387;28;20022;-60
2021/06/16 09:05:11;;;;;;;5.85;1.88;;;25.10;52.60;;;;;;5015230;28;20601;-60
2021/06/16 09:07:40;;;;;;;9.18;2.28;;;24.70;51.70;;;;;;5015646;28;20018;-61
2021/06/16 09:10:12;;;;;;;7.45;1.60;;;24.70;51.60;;;;;;5015429;28;20368;-60
2021/06/16 09:12:48;;;;;;;5.32;1.67;;;24.80;51.60;;;;;;5015569;28;20436;-61
2021/06/16 09:15:20;;;;;;;8.05;1.90;;;24.90;52.30;;;;;;5015114;28;20026;-60
2021/06/16 09:18:09;;;;;;;5.38;1.20;;;24.90;51.70;;;;;;5015448;28;20030;-61
2021/06/16 09:20:40;;;;;;;8.63;1.60;;;24.90;51.60;;;;;;5014218;28;20034;-61
2021/06/16 09:23:14;;;;;;;;;;;25.00;51.60;;;;;;5015624;28;20020;-62
2021/06/16 09:25:42;;;;;;;4.65;1.40;;;25.00;51.40;;;;;;5015114;28;19912;-61
2021/06/16 09:28:09;;;;;;;4.63;1.42;;;25.10;51.50;;;;;;5014931;28;20048;-60
2021/06/16 09:30:39;;;;;;;5.65;1.20;;;25.50;51.70;;;;;;5015066;28;20436;-60
2021/06/16 09:33:10;;;;;;;4.93;1.30;;;25.20;51.50;;;;;;5015204;28;20173;-61
2021/06/16 09:35:42;;;;;;;5.72;1.40;;;25.20;51.60;;;;;;5014875;28;20392;-61
2021/06/16 09:38:14;;;;;;;8.07;1.40;;;25.30;52.00;;;;;;5014990;28;20033;-61
2021/06/16 09:40:44;;;;;;;4.05;1.48;;;25.40;51.90;;;;;;5014783;28;20025;-61
2021/06/16 09:43:15;;;;;;;3.17;1.15;;;25.50;52.20;;;;;;5014567;28;20021;-61
2021/06/16 09:45:46;;;;;;;2.13;1.17;;;25.50;52.10;;;;;;5014829;28;20014;-60
2021/06/16 09:48:24;;;;;;;3.80;1.20;;;26.00;53.10;;;;;;5014703;28;20366;-60
2021/06/16 09:50:52;;;;;;;7.53;1.50;;;25.70;51.80;;;;;;5014678;28;20081;-60
2021/06/16 09:53:18;;;;;;;4.60;1.25;;;26.30;51.90;;;;;;5014606;28;20036;-61
2021/06/16 09:55:43;;;;;;;5.72;1.20;;;26.00;51.40;;;;;;5014460;28;20101;-61
2021/06/16 09:58:11;;;;;;;3.30;1.10;;;25.90;51.40;;;;;;5014349;28;20021;-62
2021/06/16 10:00:41;;;;;;;2.65;1.15;;;25.90;51.50;;;;;;5014161;28;20487;-62
2021/06/16 10:03:11;;;;;;;3.72;1.00;;;25.90;51.50;;;;;;5014439;28;20026;-61
2021/06/16 10:06:04;;;;;;;4.35;0.98;;;25.80;51.50;;;;;;5013975;28;20093;-61
2021/06/16 10:08:37;;;;;;;3.65;1.20;;;25.80;51.50;;;;;;5014138;28;20033;-61
2021/06/16 10:11:07;;;;;;;4.03;1.13;;;25.80;51.40;;;;;;5013969;28;20053;-61
2021/06/16 10:13:33;;;;;;;2.60;1.20;;;25.80;51.40;;;;;;5013739;28;20095;-61
2021/06/16 10:16:00;;;;;;;2.78;1.30;;;25.80;51.40;;;;;;5014249;28;20152;-62
2021/06/16 10:18:27;;;;;;;3.08;1.00;;;25.80;51.40;;;;;;5013899;28;20018;-62
2021/06/16 10:20:54;;;;;;;2.50;1.17;;;25.80;51.40;;;;;;5014170;28;20061;-61
2021/06/16 10:23:20;;;;;;;1.48;0.80;;;25.80;51.30;;;;;;5014110;28;20014;-62
2021/06/16 10:25:46;;;;;;;1.67;1.08;;;25.80;51.30;;;;;;5011929;28;20034;-62
2021/06/16 10:28:18;;;;;;;3.83;1.25;;;25.90;51.30;;;;;;5013997;28;20483;-62
2021/06/16 10:30:44;;;;;;;3.58;1.42;;;25.90;51.80;;;;;;5013660;28;20018;-62
2021/06/16 10:33:31;;;;;;;6.68;1.08;;;25.90;51.10;;;;;;5014009;28;20449;-61
2021/06/16 10:36:17;;;;;;;2.78;1.20;;;25.90;51.70;;;;;;5013484;28;20026;-62
2021/06/16 10:38:58;;;;;;;1.80;0.90;;;25.90;51.00;;;;;;5013890;28;20397;-62
2021/06/16 10:41:49;;;;;;;2.70;1.10;;;25.90;51.00;;;;;;5013784;28;20370;-62
2021/06/16 10:44:27;;;;;;;1.45;0.80;;;25.90;51.00;;;;;;5013737;28;20040;-62
2021/06/16 10:47:00;;;;;;;3.75;1.17;;;25.90;51.00;;;;;;5012278;28;20113;-62
2021/06/16 10:52:09;;;;;;;2.80;1.27;;;25.90;50.90;;;;;;5013572;28;20038;-61
2021/06/16 10:54:35;;;;;;;4.63;1.33;;;26.00;51.00;;;;;;5013611;28;20055;-61
2021/06/16 10:57:05;;;;;;;3.47;1.15;;;26.00;51.00;;;;;;5013596;28;20045;-61
2021/06/16 10:59:43;;;;;;;3.00;1.38;;;26.00;51.00;;;;;;5013287;28;20030;-61
2021/06/16 11:02:38;;;;;;;3.70;1.52;;;26.00;51.00;;;;;;5011932;28;20528;-60
2021/06/16 11:05:30;;;;;;;2.92;1.00;;;26.10;51.00;;;;;;5011578;28;20041;-60
2021/06/16 11:07:56;;;;;;;1.48;0.90;;;26.10;50.90;;;;;;5013357;28;20033;-61
2021/06/16 11:10:22;;;;;;;2.45;1.10;;;26.10;50.90;;;;;;5012931;28;20017;-61
2021/06/16 11:12:52;;;;;;;2.30;1.20;;;26.10;50.90;;;;;;5013179;28;20109;-61
2021/06/16 11:15:24;;;;;;;4.00;1.20;;;26.50;51.10;;;;;;5013358;28;20030;-61
2021/06/16 11:17:51;;;;;;;2.15;1.10;;;26.10;50.80;;;;;;5013239;28;20355;-60
2021/06/16 11:20:20;;;;;;;1.88;1.13;;;26.60;51.20;;;;;;5012882;28;20493;-60
2021/06/16 11:23:01;;;;;;;2.22;1.17;;;26.10;50.80;;;;;;5013078;28;20026;-60
2021/06/16 11:25:34;;;;;;;2.33;0.98;;;26.10;50.80;;;;;;5013172;28;20026;-61
2021/06/16 11:28:14;;;;;;;1.10;0.88;;;26.20;50.80;;;;;;5012839;28;20033;-61
2021/06/16 11:30:41;;;;;;;;;;;26.20;50.90;;;;;;5013367;28;20026;-61
2021/06/16 11:33:16;;;;;;;3.45;1.40;;;26.20;50.90;;;;;;5012732;28;20431;-61
2021/06/16 11:35:43;;;;;;;2.33;1.40;;;26.30;51.00;;;;;;5013052;28;20037;-61
2021/06/16 11:38:18;;;;;;;1.70;1.25;;;26.20;50.90;;;;;;5013531;28;20025;-61
2021/06/16 11:41:10;;;;;;;3.60;1.27;;;26.20;50.90;;;;;;5017066;28;20030;-61
2021/06/16 11:43:40;;;;;;;1.55;0.95;;;26.20;50.90;;;;;;5016782;28;20024;-60
2021/06/16 11:46:15;;;;;;;;;;;26.20;50.90;;;;;;5017403;28;20021;-61
2021/06/16 11:48:42;;;;;;;2.15;1.05;;;26.20;50.90;;;;;;5016699;28;19996;-59
2021/06/16 11:51:08;;;;;;;1.95;1.08;;;26.20;50.90;;;;;;5016790;28;20022;-60
2021/06/16 11:53:35;;;;;;;3.45;1.00;;;26.30;51.00;;;;;;5016788;28;20065;-60
2021/06/16 11:56:03;;;;;;;1.95;1.00;;;26.20;50.90;;;;;;5016740;28;20026;-61
2021/06/16 11:58:30;;;;;;;1.67;1.20;;;26.20;50.40;;;;;;5016688;28;20046;-60
2021/06/16 12:01:16;;;;;;;1.95;1.33;;;26.30;51.00;;;;;;5016622;28;20030;-60
2021/06/16 12:03:46;;;;;;;3.30;1.10;;;26.30;51.00;;;;;;5016061;28;20038;-60
2021/06/16 12:06:15;;;;;;;1.83;1.17;;;26.30;50.90;;;;;;5016501;28;20033;-61
2021/06/16 12:08:43;;;;;;;2.60;1.38;;;26.10;50.80;;;;;;5015961;28;20044;-60
2021/06/16 12:11:23;;;;;;;2.22;1.30;;;26.30;51.00;;;;;;5014742;28;20147;-60
2021/06/16 12:14:02;;;;;;;4.28;1.13;;;26.30;51.00;;;;;;5016000;28;20476;-61
2021/06/16 12:16:29;;;;;;;2.33;1.70;;;26.50;51.20;;;;;;5016298;28;20033;-60
2021/06/16 12:19:11;;;;;;;1.88;1.00;;;26.30;51.20;;;;;;5016282;28;20026;-60
2021/06/16 12:21:38;;;;;;;1.27;1.00;;;26.30;51.20;;;;;;5016484;28;20088;-61
2021/06/16 12:24:40;;;;;;;1.30;1.10;;;26.30;51.20;;;;;;5016044;28;20033;-61
2021/06/16 12:27:17;;;;;;;4.38;1.15;;;26.30;51.30;;;;;;5015607;28;20038;-61
2021/06/16 12:29:53;;;;;;;1.90;1.48;;;26.40;51.30;;;;;;5015854;28;20594;-61
2021/06/16 12:32:43;;;;;;;1.90;1.33;;;26.40;51.30;;;;;;5015864;28;20477;-61
2021/06/16 12:35:18;;;;;;;1.60;1.43;;;26.70;51.50;;;;;;5015951;28;20334;-61
2021/06/16 12:37:49;;;;;;;1.42;1.30;;;26.40;51.30;;;;;;5015817;28;20030;-61
2021/06/16 12:40:17;;;;;;;1.65;1.40;;;26.50;51.40;;;;;;5015843;28;20139;-61
2021/06/16 12:42:47;;;;;;;2.47;1.60;;;26.40;51.30;;;;;;5014311;28;20037;-60
2021/06/16 12:45:30;;;;;;;1.58;1.15;;;26.40;51.30;;;;;;5015837;28;20112;-61
2021/06/16 12:47:58;;;;;;;2.60;1.80;;;26.40;51.30;;;;;;5015658;28;20033;-61
2021/06/16 12:50:33;;;;;;;2.40;1.52;;;26.40;51.30;;;;;;5015034;28;20417;-61
2021/06/16 12:53:14;;;;;;;3.70;1.60;;;26.50;51.40;;;;;;5015593;28;20125;-62
2021/06/16 12:55:45;;;;;;;1.63;1.48;;;26.60;51.50;;;;;;5014077;28;20507;-61
2021/06/16 12:58:10;;;;;;;2.75;1.83;;;26.50;51.40;;;;;;5013824;28;20484;-61